Time;durP1;ratioP1;P1;durP2;ratioP2;P2;SDS_P1;SDS_P2;PMS_P1;PMS_P2;Temp;Humidity;BMP_temperature;BMP_pressure;BME280_temperature;BME280_humidity;BME280_pressure;Samples;Min_cycle;Max_cycle;Signal;HPM_P1;HPM_P2
2021/10/23 06:54:01;;;;;;;1999.90;999.90;;;;;;;16.80;83.64;99441.53;5110565;27;20894;-34
2021/10/23 06:56:27;;;;;;;;;;;;;;;17.26;79.98;99434.66;5110188;28;20023;-34
2021/10/23 06:58:54;;;;;;;1999.90;999.90;;;;;;;17.66;80.44;99441.25;5109704;28;19916;-34
2021/10/23 07:01:21;;;;;;;1999.90;999.90;;;;;;;17.98;77.77;99436.88;5109918;28;20341;-34
2021/10/23 07:03:47;;;;;;;1999.90;999.90;;;;;;;18.23;73.13;99440.19;5109515;28;20028;-34
2021/10/23 07:06:12;;;;;;;1999.90;999.90;;;;;;;18.45;73.31;99442.16;5109531;28;20031;-34
2021/10/23 07:08:38;;;;;;;1999.90;999.90;;;;;;;18.58;72.82;99439.75;5109463;28;20028;-34
2021/10/23 07:11:04;;;;;;;1999.90;999.90;;;;;;;18.54;71.64;99437.66;5109308;28;20092;-34
2021/10/23 07:13:30;;;;;;;1999.90;999.90;;;;;;;18.66;71.39;99442.53;5109470;28;20044;-34
2021/10/23 07:15:58;;;;;;;1999.90;999.90;;;;;;;18.78;72.66;99443.88;5109320;28;20034;-34
2021/10/23 07:18:24;;;;;;;1999.90;999.90;;;;;;;18.91;69.96;99448.47;5110078;28;20024;-34
2021/10/23 07:20:50;;;;;;;1999.90;999.90;;;;;;;19.09;69.58;99457.50;5109275;28;20111;-34
2021/10/23 07:23:15;;;;;;;1999.90;999.90;;;;;;;19.33;70.70;99461.78;5109129;28;20028;-34
2021/10/23 07:25:41;;;;;;;1999.90;999.90;;;;;;;19.59;67.25;99457.34;5109950;28;20032;-34
2021/10/23 07:28:07;;;;;;;;;;;;;;;19.74;66.98;99463.47;5109551;28;20496;-34
2021/10/23 07:30:33;;;;;;;1999.90;999.90;;;;;;;19.95;64.29;99469.13;5108985;28;19937;-34
2021/10/23 07:32:58;;;;;;;1999.90;999.90;;;;;;;20.14;66.77;99468.09;5108883;28;20031;-34
2021/10/23 07:35:24;;;;;;;1999.90;999.90;;;;;;;20.15;66.01;99475.13;5108916;28;20066;-34
2021/10/23 07:37:50;;;;;;;1999.90;999.90;;;;;;;20.19;64.07;99466.06;5108929;28;20035;-34
2021/10/23 07:40:16;;;;;;;1999.90;999.90;;;;;;;20.27;63.45;99461.78;5109544;28;20035;-34
2021/10/23 07:42:42;;;;;;;1999.90;999.90;;;;;;;20.04;63.75;99461.88;5109133;28;20031;-34
2021/10/23 07:45:11;;;;;;;1999.90;999.90;;;;;;;20.03;65.01;99462.19;5108764;28;20092;-35
2021/10/23 07:47:38;;;;;;;1999.90;999.90;;;;;;;19.88;64.12;99464.19;5108825;28;20027;-34
2021/10/23 07:50:06;;;;;;;1999.90;999.90;;;;;;;19.85;65.38;99467.53;5108696;28;20080;-34
2021/10/23 07:52:31;;;;;;;1999.90;999.90;;;;;;;19.94;66.02;99475.69;5108340;28;20572;-34
2021/10/23 07:54:57;;;;;;;1999.90;999.90;;;;;;;20.34;67.73;99469.44;5109007;28;20130;-34
2021/10/23 07:57:22;;;;;;;1999.90;999.90;;;;;;;;;;5108916;28;20407;-35
2021/10/23 07:59:48;;;;;;;1999.90;999.90;;;;;;;20.69;61.13;99475.75;5107352;28;20395;-34
2021/10/23 08:02:14;;;;;;;1999.90;999.90;;;;;;;20.82;60.48;99470.50;5108564;28;20495;-34
2021/10/23 08:04:39;;;;;;;1999.90;999.90;;;;;;;21.03;62.17;99473.38;5098560;28;20031;-34
2021/10/23 08:07:06;;;;;;;1999.90;999.90;;;;;;;21.22;60.89;99481.19;5094885;28;20035;-34
2021/10/23 08:09:36;;;;;;;1999.90;999.90;;;;;;;21.27;60.70;99484.50;5093495;28;20407;-35
2021/10/23 08:12:03;;;;;;;1999.90;999.90;;;;;;;21.28;61.07;99488.81;5094971;28;20429;-35
2021/10/23 08:14:30;;;;;;;1999.90;999.90;;;;;;;21.31;58.72;99480.03;5094595;28;20035;-35
2021/10/23 08:16:56;;;;;;;1999.90;999.90;;;;;;;21.09;58.59;99477.50;5094624;28;20107;-35
2021/10/23 08:19:23;;;;;;;1999.90;999.90;;;;;;;20.94;60.13;99476.88;5094877;28;20051;-35
2021/10/23 08:21:49;;;;;;;1999.90;999.90;;;;;;;20.84;60.98;99490.72;5094813;28;20471;-34
2021/10/23 08:24:15;;;;;;;1999.90;999.90;;;;;;;20.57;62.09;99484.47;5094467;28;20043;-35
2021/10/23 08:26:44;;;;;;;1999.90;999.90;;;;;;;20.69;63.74;99486.56;5094467;28;20028;-35
2021/10/23 08:29:10;;;;;;;1999.90;999.90;;;;;;;20.72;62.97;99482.44;5094378;28;20459;-35
2021/10/23 08:31:36;;;;;;;1999.90;999.90;;;;;;;20.66;64.40;99486.38;5094361;28;20048;-35
2021/10/23 08:34:02;;;;;;;;;;;;;;;20.61;67.07;99485.44;5094563;28;20082;-35
2021/10/23 08:36:29;;;;;;;1999.90;999.90;;;;;;;20.66;65.58;99495.34;5094229;28;19912;-34
2021/10/23 08:38:56;;;;;;;1999.90;999.90;;;;;;;20.40;66.13;99482.50;5094540;28;20027;-35
2021/10/23 08:41:24;;;;;;;1999.90;999.90;;;;;;;20.23;66.95;99495.97;5094451;28;20024;-35
2021/10/23 08:43:53;;;;;;;1999.90;999.90;;;;;;;20.19;70.29;99500.41;5094021;28;20024;-35
2021/10/23 08:46:23;;;;;;;1999.90;999.90;;;;;;;20.14;68.51;99500.56;5093909;28;20059;-35
2021/10/23 08:48:51;;;;;;;1999.90;999.90;;;;;;;20.06;71.26;99505.63;5094336;28;20461;-35
2021/10/23 08:51:18;;;;;;;1999.90;999.90;;;;;;;20.15;71.86;99500.25;5094010;28;20020;-35
2021/10/23 08:53:44;;;;;;;1999.90;999.90;;;;;;;20.21;70.31;99487.38;5093507;28;20052;-34
2021/10/23 08:56:11;;;;;;;1999.90;999.90;;;;;;;20.25;68.46;99489.16;5093901;28;20089;-34
2021/10/23 08:58:37;;;;;;;1999.90;999.90;;;;;;;20.42;69.87;99490.31;5093773;28;20039;-35
2021/10/23 09:01:05;;;;;;;1999.90;999.90;;;;;;;20.48;69.22;99494.44;5093439;28;20441;-35
2021/10/23 09:03:31;;;;;;;1999.90;999.90;;;;;;;20.63;71.58;99494.03;5093574;28;20056;-34
2021/10/23 09:05:57;;;;;;;1999.90;999.90;;;;;;;20.75;70.38;99498.84;5093959;28;20062;-35
2021/10/23 09:08:23;;;;;;;1999.90;999.90;;;;;;;20.91;68.02;99499.19;5093648;28;20388;-36
2021/10/23 09:10:50;;;;;;;1999.90;999.90;;;;;;;21.12;66.81;99498.53;5093557;28;20377;-36
2021/10/23 09:13:31;;;;;;;1999.90;999.90;;;;;;;21.30;65.14;99502.84;5093620;28;20031;-34
2021/10/23 09:15:57;;;;;;;1999.90;999.90;;;;;;;21.18;66.04;99507.31;5092546;28;20016;-35
2021/10/23 09:18:49;;;;;;;1999.90;999.90;;;;;;;21.32;67.11;99505.25;5093748;28;20032;-35
2021/10/23 09:21:21;;;;;;;1999.90;999.90;;;;;;;21.22;66.25;99505.56;5093423;28;20039;-36
2021/10/23 09:23:51;;;;;;;1999.90;999.90;;;;;;;21.12;66.18;99504.75;5093603;28;20101;-35
2021/10/23 09:26:37;;;;;;;1999.90;999.90;;;;;;;21.07;66.85;99496.81;5094090;28;20031;-34
2021/10/23 09:29:13;;;;;;;1999.90;999.90;;;;;;;21.10;69.00;99492.66;5093099;28;20092;-35
2021/10/23 09:31:41;;;;;;;1999.90;999.90;;;;;;;21.17;67.99;99492.16;5092557;28;20056;-35
2021/10/23 09:34:09;;;;;;;1999.90;999.90;;;;;;;21.31;67.50;99490.09;5092992;28;20024;-35
2021/10/23 09:36:45;;;;;;;1999.90;999.90;;;;;;;21.23;68.92;99497.13;5092651;28;20024;-35
2021/10/23 09:39:10;;;;;;;1999.90;999.90;;;;;;;21.17;70.24;99500.28;5093105;28;20103;-35
2021/10/23 09:41:36;;;;;;;1999.90;999.90;;;;;;;21.20;69.39;99484.22;5092962;28;20104;-35
2021/10/23 09:44:15;;;;;;;1999.90;999.90;;;;;;;21.39;68.93;99488.47;5093269;28;20024;-35
2021/10/23 09:46:53;;;;;;;1999.90;999.90;;;;;;;21.42;68.78;99480.50;5092908;28;20027;-35
2021/10/23 09:49:26;;;;;;;1999.90;999.90;;;;;;;21.33;68.17;99485.13;5093232;28;20115;-35
2021/10/23 09:52:05;;;;;;;1999.90;999.90;;;;;;;21.46;68.72;99488.78;5092744;28;20028;-35
2021/10/23 09:54:31;;;;;;;1999.90;999.90;;;;;;;21.42;68.91;99485.94;5092724;28;20407;-34
2021/10/23 09:56:58;;;;;;;1999.90;999.90;;;;;;;21.27;68.68;99484.50;5092743;28;20020;-35
2021/10/23 09:59:29;;;;;;;1999.90;999.90;;;;;;;21.03;71.95;99485.00;5092704;28;20051;-35
2021/10/23 10:02:00;;;;;;;1999.90;999.90;;;;;;;20.96;69.68;99485.47;5092634;28;20377;-35
2021/10/23 10:04:29;;;;;;;1999.90;999.90;;;;;;;20.91;69.59;99474.81;5092579;28;20024;-36
2021/10/23 10:06:55;;;;;;;1999.90;999.90;;;;;;;20.95;68.55;99473.06;5092529;28;20023;-36
2021/10/23 10:09:25;;;;;;;1999.90;999.90;;;;;;;20.91;68.99;99482.94;5092466;28;20024;-35
2021/10/23 10:11:53;;;;;;;1999.90;999.90;;;;;;;21.04;67.56;99475.75;5092392;28;20032;-36
2021/10/23 10:14:26;;;;;;;1999.90;999.90;;;;;;;21.12;68.29;99480.38;5092646;28;20024;-35
2021/10/23 10:16:59;;;;;;;1999.90;999.90;;;;;;;21.18;66.46;99482.94;5092341;28;20032;-36
2021/10/23 10:19:25;;;;;;;1999.90;999.90;;;;;;;21.22;67.38;99464.91;5092234;28;20024;-35
2021/10/23 10:21:52;;;;;;;1999.90;999.90;;;;;;;21.23;66.73;99461.88;5092178;28;20031;-35
2021/10/23 10:24:25;;;;;;;1999.90;999.90;;;;;;;21.12;67.06;99476.88;5092250;28;20028;-34
2021/10/23 10:27:00;;;;;;;1999.90;999.90;;;;;;;21.12;66.66;99476.88;5091994;28;20085;-34
2021/10/23 10:29:45;;;;;;;1999.90;999.90;;;;;;;21.01;68.00;99468.28;5092536;28;20106;-34
2021/10/23 10:32:17;;;;;;;1999.90;999.90;;;;;;;21.02;70.93;99475.28;5091433;28;20024;-34
2021/10/23 10:43:06;;;;;;;1999.90;999.90;;;;;;;20.93;70.26;99496.94;5092167;28;20458;-35
2021/10/23 10:45:38;;;;;;;1999.90;999.90;;;;;;;20.89;69.33;99485.16;5092149;28;20036;-34
2021/10/23 10:48:07;;;;;;;1999.90;999.90;;;;;;;20.89;69.18;99495.19;5092008;28;20035;-34
2021/10/23 10:50:47;;;;;;;1999.90;999.90;;;;;;;20.85;72.50;99489.63;5092005;28;20020;-34
2021/10/23 10:53:27;;;;;;;1999.90;999.90;;;;;;;20.82;70.08;99494.84;5091539;28;20059;-34
2021/10/23 10:55:58;;;;;;;1999.90;999.90;;;;;;;20.68;70.29;99498.50;5092197;28;20459;-34
2021/10/23 10:58:39;;;;;;;1999.90;999.90;;;;;;;20.56;69.03;99499.09;5091874;28;20031;-34
2021/10/23 11:01:22;;;;;;;1999.90;999.90;;;;;;;20.35;71.50;99501.59;5092205;28;20039;-34
2021/10/23 11:04:06;;;;;;;1999.90;999.90;;;;;;;20.43;71.72;99506.22;5092053;28;20028;-34
2021/10/23 11:06:35;;;;;;;1999.90;999.90;;;;;;;20.30;70.67;99509.84;5092128;28;20025;-34
2021/10/23 11:09:14;;;;;;;1999.90;999.90;;;;;;;20.32;73.37;99507.66;5091810;28;20032;-35
2021/10/23 11:11:46;;;;;;;1999.90;999.90;;;;;;;20.47;71.98;99503.69;5092031;28;20470;-34
2021/10/23 11:17:16;;;;;;;1999.90;999.90;;;;;;;20.56;71.46;99506.44;5086885;28;20043;-35
2021/10/23 11:19:48;;;;;;;1999.90;999.90;;;;;;;20.52;73.28;99511.66;5092065;28;20034;-35
2021/10/23 11:22:21;;;;;;;1999.90;999.90;;;;;;;20.66;72.14;99508.88;5092546;28;20024;-35
2021/10/23 11:25:11;;;;;;;1999.90;999.90;;;;;;;20.76;71.14;99496.91;5091602;28;20032;-35
2021/10/23 11:27:44;;;;;;;1999.90;999.90;;;;;;;20.85;71.03;99497.75;5091600;28;20024;-35
2021/10/23 11:30:13;;;;;;;1999.90;999.90;;;;;;;20.96;69.32;99501.72;5091530;28;20040;-35
2021/10/23 11:32:45;;;;;;;1999.90;999.90;;;;;;;20.96;69.23;99498.22;5091567;28;20028;-35
2021/10/23 11:35:11;;;;;;;1999.90;999.90;;;;;;;20.94;67.03;99497.75;5091488;28;20085;-34
2021/10/23 11:37:38;;;;;;;1999.90;999.90;;;;;;;20.85;69.21;99505.06;5091500;28;20024;-34
2021/10/23 11:40:07;;;;;;;1999.90;999.90;;;;;;;20.79;70.36;99497.09;5094438;28;20020;-34
2021/10/23 11:42:45;;;;;;;1999.90;999.90;;;;;;;20.67;68.84;99493.41;5095618;28;20030;-35
2021/10/23 11:45:16;;;;;;;1999.90;999.90;;;;;;;20.60;69.67;99494.66;5095577;28;20496;-35
2021/10/23 11:47:42;;;;;;;1999.90;999.90;;;;;;;20.51;71.42;99490.31;5095157;28;20502;-34
2021/10/23 11:50:39;;;;;;;1999.90;999.90;;;;;;;20.51;69.07;99491.16;5095203;28;20028;-34
2021/10/23 11:53:22;;;;;;;1999.90;999.90;;;;;;;20.39;70.46;99499.06;5094372;28;20044;-35
2021/10/23 11:56:08;;;;;;;1999.90;999.90;;;;;;;20.27;70.69;99499.66;5095012;28;20036;-34
2021/10/23 11:58:36;;;;;;;1999.90;999.90;;;;;;;19.96;75.06;99499.69;5095068;28;20032;-36
2021/10/23 12:01:04;;;;;;;1999.90;999.90;;;;;;;19.97;75.01;99502.09;5094950;28;20024;-34
2021/10/23 12:03:41;;;;;;;1999.90;999.90;;;;;;;20.05;76.23;99501.31;5094926;28;20079;-35
2021/10/23 12:06:19;;;;;;;;;;;;;;;20.18;74.30;99505.03;5095310;28;20024;-35
2021/10/23 12:08:46;;;;;;;1999.90;999.90;;;;;;;20.43;74.23;99500.81;5094818;28;19919;-36
2021/10/23 12:11:23;;;;;;;1999.90;999.90;;;;;;;20.43;71.59;99491.91;5094756;28;20499;-34
2021/10/23 12:13:54;;;;;;;1999.90;999.90;;;;;;;20.52;70.95;99498.13;5094667;28;20119;-36
2021/10/23 12:16:39;;;;;;;1999.90;999.90;;;;;;;20.62;69.21;99500.53;5094877;28;20028;-34
2021/10/23 12:19:09;;;;;;;1999.90;999.90;;;;;;;20.82;67.16;99495.69;5094728;28;20551;-35
2021/10/23 12:21:41;;;;;;;1999.90;999.90;;;;;;;20.88;66.74;99499.00;5095172;28;20484;-34
2021/10/23 12:24:20;;;;;;;1999.90;999.90;;;;;;;20.84;68.60;99506.19;5094564;28;20028;-35
2021/10/23 12:27:03;;;;;;;1999.90;999.90;;;;;;;20.95;69.37;99502.84;5094824;28;20085;-35
2021/10/23 12:29:45;;;;;;;1999.90;999.90;;;;;;;20.89;68.45;99506.84;5094763;28;20172;-35
2021/10/23 12:32:13;;;;;;;1999.90;999.90;;;;;;;20.93;69.11;99504.28;5094375;28;20020;-34
2021/10/23 12:34:51;;;;;;;1999.90;999.90;;;;;;;21.01;69.24;99508.91;5094272;28;20518;-35
2021/10/23 12:37:25;;;;;;;1999.90;999.90;;;;;;;21.06;68.30;99503.31;5094268;28;20480;-35
2021/10/23 12:40:05;;;;;;;1999.90;999.90;;;;;;;21.02;68.81;99507.00;5094197;28;20103;-35
2021/10/23 12:42:35;;;;;;;1999.90;999.90;;;;;;;20.83;69.25;99504.59;5094163;28;20028;-35
2021/10/23 12:45:01;;;;;;;1999.90;999.90;;;;;;;20.89;69.72;99506.84;5094031;28;20107;-35
2021/10/23 12:47:27;;;;;;;1999.90;999.90;;;;;;;20.84;70.66;99511.59;5094095;28;20080;-35
2021/10/23 12:49:53;;;;;;;1999.90;999.90;;;;;;;20.84;71.25;99514.31;5093990;28;20028;-36
2021/10/23 12:52:18;;;;;;;;;;;;;;;20.96;72.01;99515.25;5094135;28;20047;-36
2021/10/23 12:54:44;;;;;;;1999.90;999.90;;;;;;;20.83;71.89;99504.59;5094205;28;19912;-35
2021/10/23 12:57:10;;;;;;;1999.90;999.90;;;;;;;20.96;71.42;99506.34;5094213;28;20036;-34
2021/10/23 12:59:35;;;;;;;1999.90;999.90;;;;;;;21.01;71.71;99506.22;5093892;28;20036;-34
2021/10/23 13:02:01;;;;;;;1999.90;999.90;;;;;;;20.80;70.97;99500.59;5093860;28;20020;-35
2021/10/23 13:04:26;;;;;;;1999.90;999.90;;;;;;;20.65;71.10;99496.41;5094056;28;20070;-34
2021/10/23 13:06:52;;;;;;;1999.90;999.90;;;;;;;20.67;72.61;99499.63;5093697;28;20483;-34
2021/10/23 13:09:18;;;;;;;1999.90;999.90;;;;;;;20.62;74.00;99494.34;5094481;28;20027;-34
2021/10/23 13:11:43;;;;;;;;;;;;;;;20.67;73.45;99499.63;5094023;28;20032;-34
2021/10/23 13:14:09;;;;;;;1999.90;999.90;;;;;;;20.74;73.20;99499.94;5093922;28;19955;-34
2021/10/23 13:16:35;;;;;;;1999.90;999.90;;;;;;;20.83;73.15;99502.66;5093492;28;20495;-34
2021/10/23 13:19:01;;;;;;;1999.90;999.90;;;;;;;20.90;71.71;99499.50;5093514;28;20031;-34
2021/10/23 13:21:27;;;;;;;;;;;;;;;21.04;70.37;99493.91;5094139;28;20032;-35
2021/10/23 13:23:53;;;;;;;1999.90;999.90;;;;;;;21.05;71.07;99490.09;5093692;28;20291;-34
2021/10/23 13:26:18;;;;;;;1999.90;999.90;;;;;;;21.06;71.42;99494.41;5093302;28;20404;-34
2021/10/23 13:28:44;;;;;;;1999.90;999.90;;;;;;;21.11;73.19;99494.22;5093587;28;20028;-35
2021/10/23 13:31:11;;;;;;;;;;;;;;;21.02;72.51;99490.75;5093630;28;20024;-34
2021/10/23 13:33:38;;;;;;;1999.90;999.90;;;;;;;20.85;73.06;99497.75;5093470;28;19911;-34
2021/10/23 13:36:04;;;;;;;1999.90;999.90;;;;;;;20.83;71.01;99508.09;5093054;28;20032;-35
2021/10/23 13:38:29;;;;;;;;;;;;;;;20.84;72.90;99506.19;5093555;28;20550;-34
2021/10/23 13:40:55;;;;;;;1999.90;999.90;;;;;;;20.69;72.41;99502.03;5093337;28;19947;-34
2021/10/23 13:43:22;;;;;;;1999.90;999.90;;;;;;;20.66;73.51;99498.03;5091705;28;20051;-34
2021/10/23 13:45:49;;;;;;;1999.90;999.90;;;;;;;20.47;75.79;99506.41;5093494;28;20038;-34
2021/10/23 13:48:16;;;;;;;1999.90;999.90;;;;;;;20.16;75.71;99504.56;5092897;28;20488;-34
2021/10/23 13:50:41;;;;;;;1999.90;999.90;;;;;;;20.08;77.72;99500.69;5093146;28;20042;-34
2021/10/23 13:53:07;;;;;;;1999.90;999.90;;;;;;;19.96;77.70;99497.78;5092807;28;20495;-34
2021/10/23 13:55:33;;;;;;;1999.90;999.90;;;;;;;19.87;77.62;99505.06;5093153;28;20035;-35
2021/10/23 13:57:59;;;;;;;1999.90;999.90;;;;;;;19.93;78.27;99514.63;5092784;28;20024;-34
2021/10/23 14:00:24;;;;;;;1999.90;999.90;;;;;;;19.84;79.43;99509.19;5093336;28;20028;-34
2021/10/23 14:02:51;;;;;;;1999.90;999.90;;;;;;;19.87;78.50;99505.84;5092490;28;20032;-34
2021/10/23 14:05:17;;;;;;;1999.90;999.90;;;;;;;19.80;78.63;99505.50;5092568;28;20080;-34
2021/10/23 14:07:43;;;;;;;;;;;;;;;19.82;79.22;99506.00;5093074;28;20024;-34
2021/10/23 14:10:09;;;;;;;1999.90;999.90;;;;;;;19.89;79.89;99502.84;5092518;28;19968;-34
2021/10/23 14:12:34;;;;;;;1999.90;999.90;;;;;;;19.84;80.17;99508.41;5091227;28;20024;-34
2021/10/23 14:15:00;;;;;;;1999.90;999.90;;;;;;;19.85;79.85;99504.56;5092735;28;20028;-34
2021/10/23 14:17:27;;;;;;;1999.90;999.90;;;;;;;19.85;80.33;99508.09;5092419;28;20510;-34
2021/10/23 14:19:53;;;;;;;1999.90;999.90;;;;;;;19.81;80.33;99512.50;5092392;28;20036;-34
2021/10/23 14:22:20;;;;;;;1999.90;999.90;;;;;;;19.77;79.69;99509.59;5092366;28;20035;-34
2021/10/23 14:24:47;;;;;;;1999.90;999.90;;;;;;;19.69;80.21;99514.94;5092633;28;20415;-36
2021/10/23 14:27:25;;;;;;;1999.90;999.90;;;;;;;19.64;80.40;99509.69;5092514;28;20036;-34
2021/10/23 14:29:51;;;;;;;1999.90;999.90;;;;;;;19.53;82.04;99522.66;5092263;28;20016;-34
2021/10/23 14:32:17;;;;;;;1999.90;999.90;;;;;;;19.47;82.33;99521.16;5092175;28;20034;-35
2021/10/23 14:34:42;;;;;;;1999.90;999.90;;;;;;;19.52;81.90;99526.44;5092445;28;20028;-35
2021/10/23 14:37:08;;;;;;;1999.90;999.90;;;;;;;19.44;82.65;99528.00;5092397;28;20024;-34
2021/10/23 14:39:34;;;;;;;1999.90;999.90;;;;;;;19.46;82.28;99527.69;5092398;28;20480;-34
2021/10/23 14:42:00;;;;;;;1999.90;999.90;;;;;;;19.43;81.79;99523.69;5090912;28;20538;-34
2021/10/23 14:44:25;;;;;;;1999.90;999.90;;;;;;;19.37;83.85;99522.22;5092105;28;20510;-35
2021/10/23 14:46:52;;;;;;;1999.90;999.90;;;;;;;19.33;81.81;99535.53;5092244;28;20016;-34
2021/10/23 14:49:19;;;;;;;1999.90;999.90;;;;;;;19.26;81.89;99531.66;5092303;28;20065;-34
2021/10/23 14:51:44;;;;;;;;;;;;;;;19.17;82.13;99537.00;5092249;28;20063;-35
2021/10/23 14:54:10;;;;;;;1999.90;999.90;;;;;;;19.08;83.73;99545.03;5091880;28;19962;-34
2021/10/23 14:56:36;;;;;;;1999.90;999.90;;;;;;;18.95;84.65;99548.56;5091915;28;20107;-34
2021/10/23 14:59:01;;;;;;;1999.90;999.90;;;;;;;18.86;86.42;99553.88;5092228;28;20024;-34
2021/10/23 15:01:27;;;;;;;1999.90;999.90;;;;;;;18.79;86.64;99550.75;5092196;28;20020;-34
2021/10/23 15:03:53;;;;;;;1999.90;999.90;;;;;;;18.70;86.93;99546.06;5092202;28;20532;-35
2021/10/23 15:06:20;;;;;;;1999.90;999.90;;;;;;;18.58;88.90;99550.38;5091732;28;20423;-34
2021/10/23 15:08:56;;;;;;;1999.90;999.90;;;;;;;18.44;89.46;99561.16;5091827;28;20058;-34
2021/10/23 15:11:22;;;;;;;1999.90;999.90;;;;;;;18.37;89.70;99566.97;5091814;28;20543;-34
2021/10/23 15:13:48;;;;;;;1999.90;999.90;;;;;;;18.26;90.92;99569.03;5092832;28;20040;-34
2021/10/23 15:16:14;;;;;;;1999.90;999.90;;;;;;;18.19;91.81;99574.00;5095880;28;20491;-34
2021/10/23 15:18:40;;;;;;;1999.90;999.90;;;;;;;18.05;92.34;99578.59;5095783;28;20514;-34
2021/10/23 15:21:06;;;;;;;1999.90;999.90;;;;;;;17.91;94.07;99589.34;5096076;28;20024;-34
2021/10/23 15:23:32;;;;;;;1999.90;999.90;;;;;;;17.85;95.22;99591.28;5095770;28;20032;-34
2021/10/23 15:25:58;;;;;;;1999.90;999.90;;;;;;;17.79;95.01;99587.06;5095633;28;20103;-34
2021/10/23 15:28:23;;;;;;;1999.90;999.90;;;;;;;17.69;95.67;99596.13;5095638;28;20024;-34
2021/10/23 15:30:49;;;;;;;1999.90;999.90;;;;;;;17.65;95.72;99600.50;5095583;28;20095;-34
2021/10/23 15:33:15;;;;;;;1999.90;999.90;;;;;;;17.57;96.36;99607.34;5095498;28;20035;-34
2021/10/23 15:35:42;;;;;;;1999.90;999.90;;;;;;;17.52;96.89;99612.03;5095880;28;20028;-34
2021/10/23 15:38:11;;;;;;;1999.90;999.90;;;;;;;17.42;97.93;99605.69;5095418;28;20024;-34
2021/10/23 15:41:03;;;;;;;1999.90;999.90;;;;;;;17.35;98.78;99626.00;5095425;28;20082;-34
2021/10/23 15:43:29;;;;;;;1999.90;999.90;;;;;;;17.27;99.33;99624.75;5095353;28;20406;-34
2021/10/23 15:45:55;;;;;;;1999.90;999.90;;;;;;;17.07;100.00;99634.69;5095588;28;20026;-34
2021/10/23 15:48:22;;;;;;;1999.90;999.90;;;;;;;17.06;100.00;99626.91;5095240;28;20495;-34
2021/10/23 15:50:48;;;;;;;1999.90;999.90;;;;;;;16.93;100.00;99633.81;5095245;28;20117;-34
2021/10/23 15:53:15;;;;;;;1999.90;999.90;;;;;;;16.93;100.00;99631.91;5094998;28;20164;-34
2021/10/23 15:55:41;;;;;;;1999.90;999.90;;;;;;;16.86;100.00;99641.41;5095423;28;20103;-34
2021/10/23 15:58:07;;;;;;;1999.90;999.90;;;;;;;16.74;100.00;99647.19;5095066;28;20024;-34
2021/10/23 16:00:37;;;;;;;1999.90;999.90;;;;;;;16.62;100.00;99643.00;5095005;28;20024;-34
2021/10/23 16:03:03;;;;;;;1999.90;999.90;;;;;;;16.54;100.00;99650.88;5095295;28;20024;-34
2021/10/23 16:05:29;;;;;;;1999.90;999.90;;;;;;;16.54;100.00;99654.34;5095179;28;20035;-34
2021/10/23 16:07:55;;;;;;;1999.90;999.90;;;;;;;16.47;100.00;99661.16;5094791;28;20399;-34
2021/10/23 16:10:20;;;;;;;1999.90;999.90;;;;;;;16.45;100.00;99661.44;5094874;28;20113;-34
2021/10/23 16:12:46;;;;;;;1999.90;999.90;;;;;;;16.45;100.00;99664.13;5095036;28;20081;-34
2021/10/23 16:15:12;;;;;;;1999.90;999.90;;;;;;;16.44;100.00;99663.34;5095060;28;20103;-34
2021/10/23 16:17:38;;;;;;;1999.90;999.90;;;;;;;16.44;100.00;99674.09;5094602;28;20547;-34
2021/10/23 16:20:04;;;;;;;1999.90;999.90;;;;;;;16.38;100.00;99674.41;5094919;28;20057;-34
2021/10/23 16:22:30;;;;;;;1999.90;999.90;;;;;;;16.33;100.00;99683.34;5095753;28;20028;-34
2021/10/23 16:24:56;;;;;;;1999.90;999.90;;;;;;;16.27;100.00;99682.56;5094143;28;20046;-34
2021/10/23 16:27:21;;;;;;;1999.90;999.90;;;;;;;16.29;100.00;99686.88;5094380;28;20047;-34
2021/10/23 16:29:48;;;;;;;1999.90;999.90;;;;;;;16.26;100.00;99696.31;5095308;28;20028;-35
2021/10/23 16:32:13;;;;;;;1999.90;999.90;;;;;;;16.24;100.00;99683.16;5094338;28;20051;-35
2021/10/23 16:34:39;;;;;;;1999.90;999.90;;;;;;;16.23;100.00;99686.91;5094424;28;20059;-34
2021/10/23 16:37:05;;;;;;;1999.90;999.90;;;;;;;16.15;100.00;99695.59;5095117;28;20034;-33
2021/10/23 16:39:31;;;;;;;1999.90;999.90;;;;;;;16.08;100.00;99690.53;5094262;28;20036;-33
2021/10/23 16:41:57;;;;;;;1999.90;999.90;;;;;;;16.12;100.00;99696.16;5094261;28;20028;-33
2021/10/23 16:44:22;;;;;;;1999.90;999.90;;;;;;;16.06;100.00;99700.75;5094204;28;20024;-33
2021/10/23 16:46:48;;;;;;;1999.90;999.90;;;;;;;16.04;100.00;99700.22;5094094;28;20035;-33
2021/10/23 16:49:14;;;;;;;1999.90;999.90;;;;;;;16.01;100.00;99703.47;5094145;28;20028;-33
2021/10/23 16:51:40;;;;;;;1999.90;999.90;;;;;;;16.01;100.00;99705.38;5093897;28;20028;-34
2021/10/23 16:54:06;;;;;;;1999.90;999.90;;;;;;;15.97;100.00;99712.38;5094259;28;20035;-33
2021/10/23 16:56:33;;;;;;;1999.90;999.90;;;;;;;15.99;100.00;99716.41;5093959;28;20024;-33
2021/10/23 16:59:00;;;;;;;1999.90;999.90;;;;;;;15.97;100.00;99712.38;5093918;28;20020;-33
2021/10/23 17:01:26;;;;;;;1999.90;999.90;;;;;;;15.89;100.00;99717.25;5093827;28;20530;-33
2021/10/23 17:03:52;;;;;;;1999.90;999.90;;;;;;;15.91;100.00;99712.44;5093849;28;20024;-34
2021/10/23 17:06:18;;;;;;;1999.90;999.90;;;;;;;15.74;100.00;99718.13;5094622;28;20026;-34
2021/10/23 17:08:43;;;;;;;1999.90;999.90;;;;;;;15.70;100.00;99724.34;5093681;28;20036;-34
2021/10/23 17:11:09;;;;;;;1999.90;999.90;;;;;;;15.68;100.00;99713.06;5093689;28;20032;-34
2021/10/23 17:13:35;;;;;;;1999.90;999.90;;;;;;;15.66;100.00;99707.97;5093571;28;20094;-34
2021/10/23 17:16:01;;;;;;;1999.90;999.90;;;;;;;15.64;100.00;99710.13;5094459;28;20077;-34
2021/10/23 17:18:28;;;;;;;1999.90;999.90;;;;;;;15.68;100.00;99703.13;5093442;28;20024;-34
2021/10/23 17:20:55;;;;;;;1999.90;999.90;;;;;;;15.68;100.00;99702.31;5093473;28;20028;-34
2021/10/23 17:23:26;;;;;;;1999.90;999.90;;;;;;;15.70;100.00;99697.47;5093731;28;20087;-34
2021/10/23 17:25:57;;;;;;;1999.90;999.90;;;;;;;15.72;100.00;99700.69;5094456;28;20418;-34
2021/10/23 17:28:24;;;;;;;1999.90;999.90;;;;;;;15.67;100.00;99701.50;5093582;28;20145;-34
2021/10/23 17:30:52;;;;;;;1999.90;999.90;;;;;;;15.67;100.00;99706.09;5093529;28;20052;-34
2021/10/23 17:33:19;;;;;;;1999.90;999.90;;;;;;;15.66;100.00;99707.97;5093465;28;20032;-34
2021/10/23 17:35:45;;;;;;;1999.90;999.90;;;;;;;15.72;100.00;99704.19;5093430;28;20077;-34
2021/10/23 17:38:11;;;;;;;;;;;;;;;15.77;100.00;99706.03;5093101;28;20031;-34
2021/10/23 17:40:37;;;;;;;1999.90;999.90;;;;;;;15.81;100.00;99701.75;5093432;28;19916;-34
2021/10/23 17:43:04;;;;;;;1999.90;999.90;;;;;;;15.85;100.00;99705.47;5093040;28;20027;-34
2021/10/23 17:45:32;;;;;;;1999.90;999.90;;;;;;;15.86;100.00;99701.69;5093011;28;20035;-34
2021/10/23 17:47:59;;;;;;;1999.90;999.90;;;;;;;15.87;100.00;99695.25;5093209;28;20020;-34
2021/10/23 17:50:27;;;;;;;1999.90;999.90;;;;;;;15.94;100.00;99697.63;5092908;28;20024;-34
2021/10/23 17:52:53;;;;;;;1999.90;999.90;;;;;;;15.93;100.00;99701.41;5092615;28;20047;-34
2021/10/23 17:55:20;;;;;;;1999.90;999.90;;;;;;;15.88;100.00;99698.72;5092924;28;20028;-34
2021/10/23 17:57:46;;;;;;;1999.90;999.90;;;;;;;15.86;100.00;99701.69;5092812;28;20035;-34
2021/10/23 18:00:12;;;;;;;1999.90;999.90;;;;;;;15.82;100.00;99716.75;5092787;28;20541;-34
2021/10/23 18:02:43;;;;;;;1999.90;999.90;;;;;;;15.84;100.00;99705.75;5092686;28;20504;-34
2021/10/23 18:05:10;;;;;;;1999.90;999.90;;;;;;;15.85;100.00;99705.47;5092679;28;20111;-34
2021/10/23 18:07:38;;;;;;;1999.90;999.90;;;;;;;15.83;100.00;99707.63;5092591;28;20081;-34